Terminal Aerodrome Forecast
Issued by NWS Bismarck, ND

Home | Current Version | Previous Version | Text Only | Print | Product List | Glossary Off
Versions: 1 2 3 4 5 6 7 8 9 10 11 12 13 14 15 16 17

000
FTUS43 KBIS 231411 AAB
TAFBIS
TAF AMD
KBIS 231411Z 2314/2412 13011G17KT P6SM VCTS BKN080CB
      TEMPO 2314/2316 VRB20G40KT 2SM +TSRA BKN020CB OVC080
     FM231600 18010KT P6SM VCTS BKN040CB
     FM231800 28012G19KT P6SM FEW150
     FM240100 30012KT P6SM SKC
     FM240600 28006KT P6SM SKC=

USA.gov is the U.S. government's official web portal to all federal, state and local government web resources and services.